createdAt,value
2022-07-25T00:00:30.882Z,91.05
2022-07-25T00:03:01.290Z,92.91
2022-07-25T00:05:37.821Z,94.44
2022-07-25T00:08:08.759Z,94.85
2022-07-25T00:10:41.794Z,94.61
2022-07-25T00:13:13.186Z,93.46
2022-07-25T00:15:43.466Z,94.98
2022-07-25T00:18:13.597Z,94.12
2022-07-25T00:20:43.903Z,95.17
2022-07-25T00:23:14.100Z,96.34
2022-07-25T00:25:46.638Z,96.60
2022-07-25T00:28:16.439Z,96.00
2022-07-25T00:30:46.745Z,97.44
2022-07-25T00:33:22.717Z,98.63
2022-07-25T00:35:52.548Z,97.61
2022-07-25T00:38:22.399Z,98.23
2022-07-25T00:40:55.936Z,97.91
2022-07-25T00:43:25.619Z,99.24
2022-07-25T00:45:55.904Z,100.00
2022-07-25T00:48:26.222Z,100.00
2022-07-25T00:50:56.124Z,98.45
2022-07-25T00:53:26.093Z,98.48
2022-07-25T00:55:59.051Z,99.92
2022-07-25T00:58:29.000Z,100.00
2022-07-25T01:00:59.045Z,99.59
2022-07-25T01:03:29.236Z,99.71
2022-07-25T01:05:59.377Z,99.52
2022-07-25T01:08:29.800Z,100.00
2022-07-25T01:11:02.564Z,100.00
2022-07-25T01:13:35.771Z,100.00
2022-07-25T01:16:05.709Z,100.00
2022-07-25T01:18:37.292Z,99.28
2022-07-25T01:21:10.519Z,100.00
2022-07-25T01:23:40.757Z,100.00
2022-07-25T01:26:13.334Z,100.00
2022-07-25T01:28:43.292Z,100.00
2022-07-25T01:31:13.321Z,100.00
2022-07-25T01:33:43.373Z,100.00
2022-07-25T01:36:16.590Z,100.00
2022-07-25T01:38:46.694Z,100.00
2022-07-25T01:41:22.439Z,100.00
2022-07-25T01:43:55.987Z,100.00
2022-07-25T01:46:26.207Z,100.00
2022-07-25T01:48:56.293Z,100.00
2022-07-25T01:51:29.017Z,100.00
2022-07-25T01:53:58.993Z,100.00
2022-07-25T01:56:30.392Z,100.00
2022-07-25T01:59:02.635Z,100.00
2022-07-25T02:01:32.875Z,99.72
2022-07-25T02:04:03.097Z,99.92
2022-07-25T02:06:37.729Z,100.00
2022-07-25T02:09:08.520Z,100.00
2022-07-25T02:11:38.594Z,100.00
2022-07-25T02:14:08.803Z,100.00
2022-07-25T02:16:39.555Z,100.00
2022-07-25T02:19:09.570Z,100.00
2022-07-25T02:21:42.705Z,100.00
2022-07-25T02:24:12.892Z,100.00
2022-07-25T02:26:46.135Z,100.00
2022-07-25T02:29:16.074Z,100.00
2022-07-25T02:31:46.171Z,100.00
2022-07-25T02:34:16.291Z,100.00
2022-07-25T02:36:48.795Z,100.00
2022-07-25T02:39:18.803Z,100.00
2022-07-25T02:41:48.816Z,100.00
2022-07-25T02:44:18.681Z,100.00
2022-07-25T02:46:48.760Z,100.00
2022-07-25T02:49:18.698Z,100.00
2022-07-25T02:51:51.528Z,100.00
2022-07-25T02:54:22.669Z,100.00
2022-07-25T02:56:52.948Z,100.00
2022-07-25T02:59:22.965Z,100.00
2022-07-25T03:01:53.013Z,100.00
2022-07-25T03:04:25.662Z,100.00
2022-07-25T03:06:58.346Z,100.00
2022-07-25T03:09:28.179Z,100.00
2022-07-25T03:11:58.031Z,100.00
2022-07-25T03:14:28.150Z,100.00
2022-07-25T03:16:58.188Z,100.00
2022-07-25T03:19:28.210Z,100.00
2022-07-25T03:22:00.785Z,100.00
2022-07-25T03:24:30.641Z,100.00
2022-07-25T03:27:00.596Z,100.00
2022-07-25T03:29:30.759Z,100.00
2022-07-25T03:32:00.725Z,100.00
2022-07-25T03:34:30.858Z,100.00
2022-07-25T03:37:04.223Z,100.00
2022-07-25T03:39:34.463Z,100.00
2022-07-25T03:42:04.249Z,100.00
2022-07-25T03:44:34.059Z,100.00
2022-07-25T03:47:04.897Z,100.00
2022-07-25T03:49:34.910Z,100.00
2022-07-25T03:52:08.011Z,100.00
2022-07-25T03:54:37.932Z,100.00
2022-07-25T03:57:08.621Z,100.00
2022-07-25T03:59:38.529Z,100.00
2022-07-25T04:02:08.549Z,100.00
2022-07-25T04:04:38.461Z,100.00
2022-07-25T04:07:11.157Z,100.00
2022-07-25T04:09:40.959Z,100.00
2022-07-25T04:12:13.292Z,100.00
2022-07-25T04:14:43.309Z,100.00
2022-07-25T04:17:13.545Z,100.00
2022-07-25T04:19:44.806Z,100.00
2022-07-25T04:22:17.990Z,100.00
2022-07-25T04:24:48.011Z,100.00
2022-07-25T04:27:17.846Z,100.00
2022-07-25T04:29:50.461Z,100.00
2022-07-25T04:32:23.331Z,100.00
2022-07-25T04:34:55.641Z,100.00
2022-07-25T04:37:28.423Z,100.00
2022-07-25T04:39:58.480Z,100.00
2022-07-25T04:42:28.534Z,100.00
2022-07-25T04:44:58.644Z,100.00
2022-07-25T04:47:28.579Z,100.00
2022-07-25T04:49:58.774Z,100.00
2022-07-25T04:52:31.554Z,100.00
2022-07-25T04:55:02.628Z,100.00
2022-07-25T04:57:33.864Z,100.00
2022-07-25T05:00:04.363Z,100.00
2022-07-25T05:02:34.768Z,100.00
2022-07-25T05:05:04.760Z,100.00
2022-07-25T05:07:40.432Z,100.00
2022-07-25T05:10:13.967Z,100.00
2022-07-25T05:12:43.749Z,100.00
2022-07-25T05:15:15.528Z,100.00
2022-07-25T05:17:45.727Z,100.00
2022-07-25T05:20:16.020Z,100.00
2022-07-25T05:22:48.896Z,100.00
2022-07-25T05:25:19.104Z,100.00
2022-07-25T05:27:49.282Z,100.00
2022-07-25T05:30:19.767Z,100.00
2022-07-25T05:32:49.974Z,100.00
2022-07-25T05:35:21.452Z,100.00
2022-07-25T05:37:54.019Z,100.00
2022-07-25T05:40:24.520Z,100.00
2022-07-25T05:42:59.392Z,100.00
2022-07-25T05:45:32.586Z,100.00
2022-07-25T05:48:02.787Z,100.00
2022-07-25T05:50:33.000Z,100.00
2022-07-25T05:53:05.703Z,100.00
2022-07-25T05:55:35.619Z,100.00
2022-07-25T05:58:11.896Z,100.00
2022-07-25T06:00:42.164Z,100.00
2022-07-25T06:03:12.779Z,100.00
2022-07-25T06:05:42.847Z,100.00
2022-07-25T06:08:15.521Z,100.00
2022-07-25T06:10:46.140Z,100.00
2022-07-25T06:13:16.562Z,100.00
2022-07-25T06:15:50.492Z,100.00
2022-07-25T06:18:20.802Z,100.00
2022-07-25T06:20:56.438Z,100.00
2022-07-25T06:23:29.331Z,100.00
2022-07-25T06:25:59.191Z,100.00
2022-07-25T06:28:29.281Z,100.00
2022-07-25T06:30:59.644Z,100.00
2022-07-25T06:33:29.555Z,100.00
2022-07-25T06:35:59.733Z,100.00
2022-07-25T06:38:32.903Z,100.00
2022-07-25T06:41:02.943Z,100.00
2022-07-25T06:43:34.137Z,100.00
2022-07-25T06:46:04.120Z,100.00
2022-07-25T06:48:34.207Z,100.00
2022-07-25T06:51:04.376Z,100.00
2022-07-25T06:53:37.473Z,100.00
2022-07-25T06:56:08.520Z,100.00
2022-07-25T06:58:38.624Z,100.00
2022-07-25T07:01:08.906Z,100.00
2022-07-25T07:03:40.453Z,100.00
2022-07-25T07:06:12.299Z,100.00
2022-07-25T07:08:44.995Z,100.00
2022-07-25T07:11:19.186Z,100.00
2022-07-25T07:13:51.954Z,100.00
2022-07-25T07:16:22.009Z,100.00
2022-07-25T07:18:52.283Z,100.00
2022-07-25T07:21:22.343Z,100.00
2022-07-25T07:23:55.167Z,100.00
2022-07-25T07:26:26.926Z,100.00
2022-07-25T07:29:07.168Z,100.00
2022-07-25T07:31:37.650Z,100.00
2022-07-25T07:34:07.739Z,100.00
2022-07-25T07:36:37.964Z,100.00
2022-07-25T07:39:10.684Z,100.00
2022-07-25T07:41:40.608Z,100.00
2022-07-25T07:44:10.719Z,100.00
2022-07-25T07:46:40.887Z,100.00
2022-07-25T07:49:11.461Z,100.00
2022-07-25T07:51:41.776Z,100.00
2022-07-25T07:54:28.995Z,100.00
2022-07-25T07:57:07.345Z,100.00
2022-07-25T07:59:51.032Z,100.00
2022-07-25T08:02:24.381Z,100.00
2022-07-25T08:04:54.001Z,100.00
2022-07-25T08:07:27.240Z,100.00
2022-07-25T08:10:01.968Z,100.00
2022-07-25T08:12:32.917Z,100.00
2022-07-25T08:15:03.859Z,100.00
2022-07-25T08:17:34.203Z,100.00
2022-07-25T08:20:35.197Z,98.46
2022-07-25T08:22:57.683Z,95.34
2022-07-25T08:25:30.367Z,91.38
2022-07-25T08:28:00.408Z,92.34
2022-07-25T08:30:30.776Z,91.92
2022-07-25T08:33:08.279Z,89.37
2022-07-25T08:35:39.653Z,90.14
2022-07-25T08:38:12.088Z,88.56
2022-07-25T08:40:45.011Z,89.09
2022-07-25T08:43:17.091Z,85.64
2022-07-25T08:45:49.049Z,78.59
2022-07-25T08:48:22.216Z,75.54
2022-07-25T08:50:52.854Z,71.47
2022-07-25T08:53:34.338Z,75.83
2022-07-25T08:56:16.204Z,74.91
2022-07-25T08:58:51.160Z,76.42
2022-07-25T09:01:22.138Z,78.40
2022-07-25T09:03:57.134Z,80.03
2022-07-25T09:06:27.243Z,80.42
2022-07-25T09:08:59.787Z,82.21
2022-07-25T09:11:39.216Z,82.43
2022-07-25T09:14:15.253Z,84.21
2022-07-25T09:16:50.937Z,83.67
2022-07-25T09:19:22.864Z,84.26
2022-07-25T09:22:10.347Z,85.06
2022-07-25T09:24:47.774Z,85.92
2022-07-25T09:27:23.300Z,86.89
2022-07-25T09:29:53.639Z,88.32
2022-07-25T09:32:26.229Z,85.91
2022-07-25T09:34:57.729Z,85.10
2022-07-25T09:37:30.383Z,81.39
2022-07-25T09:40:00.779Z,82.18
2022-07-25T09:42:36.589Z,82.91
2022-07-25T09:45:13.086Z,85.90
2022-07-25T09:47:54.891Z,85.06
2022-07-25T09:50:27.258Z,84.18
2022-07-25T09:52:59.137Z,79.42
2022-07-25T09:55:30.799Z,73.90
2022-07-25T09:58:03.972Z,75.26
2022-07-25T10:00:35.335Z,76.31
2022-07-25T10:03:19.800Z,77.54
2022-07-25T10:06:13.382Z,77.12
2022-07-25T10:08:45.111Z,77.78
2022-07-25T10:11:28.211Z,78.09
2022-07-25T10:14:00.721Z,80.28
2022-07-25T10:16:33.480Z,79.88
2022-07-25T10:19:07.681Z,81.52
2022-07-25T10:21:38.062Z,85.86
2022-07-25T10:24:11.444Z,82.34
2022-07-25T10:26:55.361Z,81.03
2022-07-25T10:29:42.648Z,81.51
2022-07-25T10:32:15.700Z,81.22
2022-07-25T10:34:55.457Z,78.59
2022-07-25T10:37:33.791Z,78.11
2022-07-25T10:40:04.289Z,80.31
2022-07-25T10:42:39.339Z,82.08
2022-07-25T10:45:20.413Z,82.61
2022-07-25T10:47:57.984Z,84.56
2022-07-25T10:50:46.389Z,85.80
2022-07-25T10:53:18.684Z,83.76
2022-07-25T10:56:05.004Z,83.60
2022-07-25T10:58:52.654Z,81.78
2022-07-25T11:01:30.853Z,83.83
2022-07-25T11:04:06.250Z,82.48
2022-07-25T11:06:40.735Z,82.44
2022-07-25T11:09:22.705Z,81.66
2022-07-25T11:11:58.139Z,82.74
2022-07-25T11:14:32.918Z,83.97
2022-07-25T11:17:18.873Z,84.26
2022-07-25T11:20:00.511Z,79.19
2022-07-25T11:22:32.833Z,74.24
2022-07-25T11:25:04.033Z,72.06
2022-07-25T11:27:36.807Z,72.09
2022-07-25T11:30:12.062Z,71.80
2022-07-25T11:32:48.110Z,71.48
2022-07-25T11:35:19.683Z,69.85
2022-07-25T11:37:52.339Z,69.99
2022-07-25T11:40:27.294Z,68.34
2022-07-25T11:42:59.878Z,66.08
2022-07-25T11:45:34.359Z,62.28
2022-07-25T11:48:12.402Z,62.08
2022-07-25T11:50:44.362Z,62.74
2022-07-25T11:53:19.513Z,62.79
2022-07-25T11:55:49.429Z,62.50
2022-07-25T11:58:21.055Z,63.64
2022-07-25T12:00:56.485Z,63.30
2022-07-25T12:03:29.999Z,62.33
2022-07-25T12:06:01.237Z,59.14
2022-07-25T12:08:33.626Z,59.82
2022-07-25T12:11:13.270Z,57.72
2022-07-25T12:13:45.445Z,58.82
2022-07-25T12:16:15.681Z,57.65
2022-07-25T12:18:50.799Z,56.77
2022-07-25T12:21:21.142Z,57.36
2022-07-25T12:23:51.113Z,55.63
2022-07-25T12:26:21.983Z,54.34
2022-07-25T12:28:52.672Z,54.44
2022-07-25T12:31:28.873Z,53.21
2022-07-25T12:34:02.559Z,54.05
2022-07-25T12:36:34.547Z,54.35
2022-07-25T12:39:07.349Z,57.74
2022-07-25T12:41:37.969Z,59.93
2022-07-25T12:44:08.794Z,60.16
2022-07-25T12:46:48.799Z,61.35
2022-07-25T12:49:22.217Z,60.12
2022-07-25T12:51:57.705Z,61.68
2022-07-25T12:54:28.767Z,61.50
2022-07-25T12:56:59.933Z,62.29
2022-07-25T12:59:30.441Z,61.08
2022-07-25T13:02:00.831Z,61.25
2022-07-25T13:04:34.269Z,57.01
2022-07-25T13:07:04.658Z,56.15
2022-07-25T13:09:35.422Z,57.15
2022-07-25T13:12:05.660Z,57.20
2022-07-25T13:14:35.734Z,58.33
2022-07-25T13:17:06.955Z,58.82
2022-07-25T13:19:40.179Z,60.70
2022-07-25T13:22:09.885Z,60.63
2022-07-25T13:24:40.232Z,59.36
2022-07-25T13:27:10.698Z,57.67
2022-07-25T13:29:41.157Z,56.66
2022-07-25T13:32:13.793Z,56.94
2022-07-25T13:34:46.492Z,57.05
2022-07-25T13:37:16.978Z,56.94
2022-07-25T13:39:46.929Z,56.52
2022-07-25T13:42:17.202Z,55.59
2022-07-25T13:44:47.434Z,57.18
2022-07-25T13:47:17.689Z,56.94
2022-07-25T13:49:50.634Z,56.44
2022-07-25T13:52:21.070Z,57.10
2022-07-25T13:54:50.867Z,56.55
2022-07-25T13:57:21.146Z,57.13
2022-07-25T13:59:51.430Z,56.74
2022-07-25T14:02:23.489Z,56.06
2022-07-25T14:04:58.754Z,54.44
2022-07-25T14:07:32.570Z,54.24
2022-07-25T14:10:02.662Z,54.93
2022-07-25T14:12:34.749Z,54.75
2022-07-25T14:15:04.744Z,53.98
2022-07-25T14:17:35.674Z,56.19
2022-07-25T14:20:11.430Z,56.66
2022-07-25T14:22:42.419Z,57.18
2022-07-25T14:25:15.629Z,58.02
2022-07-25T14:27:45.496Z,56.78
2022-07-25T14:30:16.949Z,57.64
2022-07-25T14:32:47.429Z,57.27
2022-07-25T14:35:21.163Z,56.91
2022-07-25T14:37:51.320Z,55.20
2022-07-25T14:40:24.436Z,54.23
2022-07-25T14:42:57.610Z,54.41
2022-07-25T14:45:27.397Z,55.82
2022-07-25T14:47:57.576Z,56.25
2022-07-25T14:50:30.483Z,57.37
2022-07-25T14:53:00.398Z,58.01
2022-07-25T14:55:30.653Z,56.45
2022-07-25T14:58:02.550Z,55.69
2022-07-25T15:00:33.924Z,57.46
2022-07-25T15:03:04.541Z,56.11
2022-07-25T15:05:38.502Z,56.99
2022-07-25T15:08:09.576Z,62.59
2022-07-25T15:10:39.488Z,61.86
2022-07-25T15:16:02.713Z,59.86
2022-07-25T15:18:46.865Z,59.02
2022-07-25T15:21:27.246Z,59.82
2022-07-25T15:23:57.631Z,59.97
2022-07-25T15:26:27.637Z,62.57
2022-07-25T15:28:57.738Z,65.42
2022-07-25T15:31:27.769Z,67.97
2022-07-25T15:33:58.829Z,67.66
2022-07-25T15:36:32.670Z,66.27
2022-07-25T15:39:11.872Z,67.19
2022-07-25T15:41:41.967Z,68.77
2022-07-25T15:44:12.173Z,67.90
2022-07-25T15:46:43.166Z,68.17
2022-07-25T15:49:13.295Z,67.55
2022-07-25T15:51:46.173Z,67.89
2022-07-25T15:54:19.383Z,65.25
2022-07-25T15:56:48.892Z,65.30
2022-07-25T15:59:20.927Z,66.69
2022-07-25T16:01:53.029Z,68.95
2022-07-25T16:04:23.033Z,69.81
2022-07-25T16:06:55.561Z,71.64
2022-07-25T16:09:28.196Z,72.67
2022-07-25T16:11:57.966Z,72.56
2022-07-25T16:14:27.831Z,71.47
2022-07-25T16:16:59.311Z,71.49
2022-07-25T16:19:32.924Z,74.05
2022-07-25T16:22:06.365Z,76.43
2022-07-25T16:24:37.691Z,78.20
2022-07-25T16:27:08.287Z,80.14
2022-07-25T16:29:38.231Z,81.08
2022-07-25T16:32:09.423Z,80.16
2022-07-25T16:34:39.471Z,79.75
2022-07-25T16:37:13.426Z,80.14
2022-07-25T16:39:43.791Z,80.86
2022-07-25T16:42:13.643Z,81.77
2022-07-25T16:44:47.860Z,83.93
2022-07-25T16:47:17.905Z,84.67
2022-07-25T16:49:48.084Z,84.31
2022-07-25T16:52:22.807Z,84.05
2022-07-25T16:54:55.614Z,83.83
2022-07-25T16:57:28.659Z,82.90
2022-07-25T16:59:59.042Z,83.13
2022-07-25T17:02:30.145Z,83.39
2022-07-25T17:05:00.209Z,84.19
2022-07-25T17:07:33.786Z,84.57
2022-07-25T17:10:03.720Z,84.76
2022-07-25T17:12:35.482Z,85.18
2022-07-25T17:15:05.287Z,85.71
2022-07-25T17:17:35.561Z,86.60
2022-07-25T17:20:05.497Z,86.88
2022-07-25T17:22:39.005Z,87.40
2022-07-25T17:25:09.959Z,87.77
2022-07-25T17:27:41.014Z,88.36
2022-07-25T17:30:12.043Z,89.42
2022-07-25T17:32:42.705Z,89.51
2022-07-25T17:35:12.811Z,90.86
2022-07-25T17:37:46.316Z,91.87
2022-07-25T17:40:18.676Z,91.95
2022-07-25T17:42:49.086Z,91.84
2022-07-25T17:45:19.244Z,92.64
2022-07-25T17:47:49.438Z,93.53
2022-07-25T17:50:28.666Z,94.28
2022-07-25T17:53:03.842Z,94.26
2022-07-25T17:55:38.503Z,94.09
2022-07-25T17:58:09.222Z,94.05
2022-07-25T18:00:39.489Z,94.46
2022-07-25T18:03:10.031Z,95.30
2022-07-25T18:05:40.748Z,94.74
2022-07-25T18:08:13.543Z,96.44
2022-07-25T18:10:43.785Z,95.76
2022-07-25T18:13:18.084Z,96.11
2022-07-25T18:15:53.302Z,95.79
2022-07-25T18:18:23.454Z,97.24
2022-07-25T18:20:53.786Z,97.39
2022-07-25T18:23:27.367Z,97.12
2022-07-25T18:25:57.982Z,99.38
2022-07-25T18:28:29.498Z,99.26
2022-07-25T18:30:59.780Z,99.83
2022-07-25T18:33:34.075Z,100.00
2022-07-25T18:36:07.378Z,100.00
2022-07-25T18:38:49.443Z,100.00
2022-07-25T18:41:29.288Z,100.00
2022-07-25T18:44:01.180Z,100.00
2022-07-25T18:46:34.170Z,100.00
2022-07-25T18:49:05.124Z,100.00
2022-07-25T18:51:35.566Z,100.00
2022-07-25T18:54:10.041Z,100.00
2022-07-25T18:56:43.059Z,100.00
2022-07-25T18:59:13.086Z,100.00
2022-07-25T19:01:46.063Z,100.00
2022-07-25T19:04:17.418Z,100.00
2022-07-25T19:06:47.668Z,100.00
2022-07-25T19:09:23.086Z,100.00
2022-07-25T19:11:53.001Z,100.00
2022-07-25T19:14:24.370Z,100.00
2022-07-25T19:16:55.231Z,100.00
2022-07-25T19:19:26.699Z,100.00
2022-07-25T19:21:59.761Z,100.00
2022-07-25T19:24:33.911Z,100.00
2022-07-25T19:27:04.077Z,100.00
2022-07-25T19:29:34.199Z,100.00
2022-07-25T19:32:04.763Z,100.00
2022-07-25T19:34:35.056Z,100.00
2022-07-25T19:37:06.647Z,100.00
2022-07-25T19:39:40.100Z,100.00
2022-07-25T19:42:10.858Z,100.00
2022-07-25T19:44:41.101Z,100.00
2022-07-25T19:47:12.109Z,100.00
2022-07-25T19:49:43.034Z,100.00
2022-07-25T19:52:13.849Z,100.00
2022-07-25T19:54:46.634Z,100.00
2022-07-25T19:57:16.895Z,100.00
2022-07-25T19:59:47.215Z,100.00
2022-07-25T20:02:17.386Z,100.00
2022-07-25T20:04:47.360Z,100.00
2022-07-25T20:07:17.337Z,100.00
2022-07-25T20:09:50.805Z,100.00
2022-07-25T20:12:20.982Z,100.00
2022-07-25T20:14:51.135Z,100.00
2022-07-25T20:17:21.151Z,100.00
2022-07-25T20:19:51.994Z,100.00
2022-07-25T20:22:24.242Z,100.00
2022-07-25T20:24:57.131Z,100.00
2022-07-25T20:27:26.868Z,100.00
2022-07-25T20:29:56.986Z,100.00
2022-07-25T20:32:26.810Z,100.00
2022-07-25T20:35:00.273Z,100.00
2022-07-25T20:37:31.091Z,100.00
2022-07-25T20:40:04.950Z,100.00
2022-07-25T20:42:35.132Z,100.00
2022-07-25T20:45:06.511Z,100.00
2022-07-25T20:47:37.329Z,100.00
2022-07-25T20:50:12.510Z,100.00
2022-07-25T20:52:42.880Z,100.00
2022-07-25T20:55:15.528Z,100.00
2022-07-25T20:57:50.347Z,100.00
2022-07-25T21:00:24.326Z,100.00
2022-07-25T21:02:54.708Z,100.00
2022-07-25T21:05:27.086Z,100.00
2022-07-25T21:07:59.125Z,100.00
2022-07-25T21:10:33.225Z,100.00
2022-07-25T21:13:03.860Z,100.00
2022-07-25T21:15:35.595Z,100.00
2022-07-25T21:18:05.496Z,100.00
2022-07-25T21:20:35.812Z,100.00
2022-07-25T21:23:10.414Z,100.00
2022-07-25T21:25:43.257Z,100.00
2022-07-25T21:28:17.819Z,100.00
2022-07-25T21:30:48.232Z,100.00
2022-07-25T21:33:18.247Z,100.00
2022-07-25T21:35:53.495Z,100.00
2022-07-25T21:38:28.843Z,100.00
2022-07-25T21:41:04.240Z,100.00
2022-07-25T21:43:34.802Z,100.00
2022-07-25T21:46:07.424Z,100.00
2022-07-25T21:48:52.681Z,100.00
2022-07-25T21:51:24.593Z,100.00
2022-07-25T21:53:54.941Z,100.00
2022-07-25T21:56:27.543Z,100.00
2022-07-25T21:58:57.872Z,100.00
2022-07-25T22:01:27.777Z,100.00
2022-07-25T22:03:58.342Z,100.00
2022-07-25T22:06:28.599Z,100.00
2022-07-25T22:08:59.350Z,100.00
2022-07-25T22:11:38.980Z,100.00
2022-07-25T22:14:15.965Z,100.00
2022-07-25T22:16:46.552Z,100.00
2022-07-25T22:19:20.791Z,100.00
2022-07-25T22:21:52.767Z,100.00
2022-07-25T22:24:25.413Z,100.00
2022-07-25T22:26:57.837Z,100.00
2022-07-25T22:29:27.936Z,100.00
2022-07-25T22:31:58.276Z,100.00
2022-07-25T22:34:28.711Z,100.00
2022-07-25T22:36:59.022Z,100.00
2022-07-25T22:39:30.902Z,100.00
2022-07-25T22:42:04.266Z,100.00
2022-07-25T22:44:34.423Z,100.00
2022-07-25T22:47:04.342Z,100.00
2022-07-25T22:49:34.424Z,100.00
2022-07-25T22:52:04.912Z,100.00
2022-07-25T22:54:35.100Z,100.00
2022-07-25T22:57:08.036Z,100.00
2022-07-25T22:59:38.194Z,100.00
2022-07-25T23:02:08.149Z,100.00
2022-07-25T23:04:38.536Z,100.00
2022-07-25T23:07:08.569Z,100.00
2022-07-25T23:09:38.351Z,100.00
2022-07-25T23:12:12.048Z,100.00
2022-07-25T23:14:43.922Z,100.00
2022-07-25T23:17:24.845Z,100.00
2022-07-25T23:19:57.234Z,100.00
2022-07-25T23:22:29.269Z,100.00
2022-07-25T23:24:59.729Z,100.00
2022-07-25T23:27:34.927Z,100.00
2022-07-25T23:30:06.773Z,100.00
2022-07-25T23:32:37.937Z,100.00
2022-07-25T23:35:09.009Z,100.00
2022-07-25T23:37:39.025Z,100.00
2022-07-25T23:40:11.756Z,100.00
2022-07-25T23:42:44.552Z,100.00
2022-07-25T23:45:17.337Z,100.00
2022-07-25T23:47:49.317Z,100.00
2022-07-25T23:50:19.322Z,100.00
2022-07-25T23:52:52.332Z,100.00
2022-07-25T23:55:23.258Z,100.00
2022-07-25T23:57:55.722Z,100.00
